Time;durP1;ratioP1;P1;durP2;ratioP2;P2;SDS_P1;SDS_P2;PMS_P1;PMS_P2;Temp;Humidity;BMP_temperature;BMP_pressure;BME280_temperature;BME280_humidity;BME280_pressure;Samples;Min_cycle;Max_cycle;Signal;HPM_P1;HPM_P2
2024/04/17 00:01:03;;;;;;;4.00;0.80;;;;;;;5.11;74.73;98831.52;109093;1257;22793;-80
2024/04/17 00:03:52;;;;;;;;;;;;;;;5.09;75.04;98833.77;109297;1268;24376;-82
2024/04/17 00:06:43;;;;;;;3.70;0.70;;;;;;;5.06;75.40;98831.65;109182;1267;25306;-80
2024/04/17 00:09:33;;;;;;;4.40;0.70;;;;;;;5.05;75.44;98831.34;109256;1271;22531;-80
2024/04/17 00:12:23;;;;;;;5.50;0.80;;;;;;;5.05;75.89;98830.13;109305;1270;22540;-80
2024/04/17 00:15:13;;;;;;;;;;;;;;;5.04;75.93;98825.09;109327;1268;22605;-80
2024/04/17 00:18:03;;;;;;;4.70;0.70;;;;;;;5.04;76.19;98824.54;109285;1267;22602;-81
2024/04/17 00:20:54;;;;;;;3.20;0.80;;;;;;;5.04;76.54;98826.70;109271;1251;22594;-81
2024/04/17 00:23:44;;;;;;;3.50;0.70;;;;;;;5.02;77.06;98821.58;109125;1271;22616;-80
2024/04/17 00:26:33;;;;;;;;;;;;;;;5.02;77.46;98820.61;109402;1268;22561;-80
2024/04/17 00:29:23;;;;;;;5.50;1.00;;;;;;;5.00;77.58;98826.33;109263;1273;24314;-81
2024/04/17 00:32:14;;;;;;;2.00;0.60;;;;;;;4.99;77.67;98824.95;109264;1273;24058;-81
2024/04/17 00:35:03;;;;;;;;;;;;;;;4.99;77.60;98824.59;108989;1274;24378;-82
2024/04/17 00:37:53;;;;;;;2.90;0.60;;;;;;;4.97;78.11;98827.21;109022;1274;23188;-80
2024/04/17 00:40:44;;;;;;;3.10;0.60;;;;;;;4.96;78.24;98826.09;109290;1274;22612;-80
2024/04/17 00:43:34;;;;;;;2.30;0.60;;;;;;;4.95;78.47;98824.62;109246;1273;23003;-81
2024/04/17 00:46:24;;;;;;;;;;;;;;;4.93;78.47;98826.30;109033;1273;22633;-80
2024/04/17 00:49:16;;;;;;;3.40;0.80;;;;;;;4.91;78.47;98822.53;109314;1268;22554;-80
2024/04/17 00:52:07;;;;;;;2.90;1.00;;;;;;;4.90;79.20;98829.00;109316;1273;23443;-81
2024/04/17 00:55:00;;;;;;;3.60;0.80;;;;;;;4.85;79.37;98833.69;109251;1268;22577;-80
2024/04/17 00:57:51;;;;;;;4.90;0.80;;;;;;;4.81;79.76;98835.33;109238;1263;22544;-80
2024/04/17 01:00:42;;;;;;;3.50;0.80;;;;;;;4.78;79.61;98836.11;109125;1273;22543;-80
2024/04/17 01:03:32;;;;;;;4.10;1.00;;;;;;;4.75;79.52;98835.91;109104;1273;23904;-80
2024/04/17 01:06:22;;;;;;;;;;;;;;;4.73;79.67;98841.19;109241;1273;24450;-80
2024/04/17 01:09:12;;;;;;;3.70;0.80;;;;;;;4.71;80.17;98839.85;109169;1273;22539;-80
2024/04/17 01:12:01;;;;;;;;;;;;;;;4.69;80.47;98842.31;108991;1273;22654;-79
2024/04/17 01:14:52;;;;;;;4.20;0.80;;;;;;;4.70;80.84;98838.42;109031;1264;23565;-80
2024/04/17 01:17:42;;;;;;;3.90;0.80;;;;;;;4.72;81.06;98837.45;108679;1273;25357;-80
2024/04/17 01:20:31;;;;;;;;;;;;;;;4.74;81.66;98840.35;109213;1273;22529;-80
2024/04/17 01:23:22;;;;;;;3.20;0.90;;;;;;;4.73;81.85;98844.66;108988;1273;23338;-80
2024/04/17 01:26:12;;;;;;;4.90;0.80;;;;;;;4.73;82.37;98843.27;108553;1274;22660;-80
2024/04/17 01:29:03;;;;;;;3.40;0.60;;;;;;;4.74;82.59;98846.09;108290;1274;25417;-79
2024/04/17 01:31:54;;;;;;;5.60;0.70;;;;;;;4.73;83.35;98845.46;108856;1274;23354;-81
2024/04/17 01:34:44;;;;;;;4.00;0.60;;;;;;;4.71;83.26;98844.61;108258;1274;22532;-80
2024/04/17 01:37:35;;;;;;;3.10;0.80;;;;;;;4.69;83.51;98843.52;108643;1274;22570;-80
2024/04/17 01:40:25;;;;;;;5.20;0.90;;;;;;;4.67;83.67;98847.41;109147;1268;22641;-79
2024/04/17 01:43:15;;;;;;;;;;;;;;;4.65;83.83;98846.11;108473;1274;22615;-81
2024/04/17 01:46:05;;;;;;;4.10;0.90;;;;;;;4.63;83.87;98850.05;108886;1274;22891;-80
2024/04/17 01:48:55;;;;;;;3.60;0.80;;;;;;;4.64;83.93;98854.77;109328;1274;23353;-80
2024/04/17 01:51:46;;;;;;;3.80;0.60;;;;;;;4.64;84.26;98862.13;108644;1274;24467;-79
2024/04/17 01:54:36;;;;;;;3.20;0.80;;;;;;;4.66;84.02;98863.11;108651;1270;23079;-79
2024/04/17 01:57:26;;;;;;;2.80;0.80;;;;;;;4.68;83.88;98872.86;108579;1271;23322;-80
2024/04/17 02:00:16;;;;;;;;;;;;;;;4.70;83.97;98874.10;108330;1270;22619;-79
2024/04/17 02:03:09;;;;;;;2.60;0.80;;;;;;;4.70;83.87;98871.59;108706;1274;24557;-80
2024/04/17 02:05:59;;;;;;;4.40;0.90;;;;;;;4.69;83.61;98873.34;108843;1270;22564;-79
2024/04/17 02:08:48;;;;;;;;;;;;;;;4.66;83.52;98877.25;109282;1270;22605;-79
2024/04/17 02:11:39;;;;;;;3.90;0.90;;;;;;;4.61;83.05;98874.63;108496;1271;23136;-80
2024/04/17 02:14:28;;;;;;;;;;;;;;;4.60;82.96;98874.61;108433;1273;22622;-79
2024/04/17 02:17:18;;;;;;;3.10;0.90;;;;;;;4.58;82.93;98874.66;108368;1267;23294;-79
2024/04/17 02:20:10;;;;;;;5.00;1.30;;;;;;;4.56;82.97;98881.85;108340;1267;22532;-81
2024/04/17 02:23:00;;;;;;;2.40;0.70;;;;;;;4.52;82.94;98876.60;108294;1274;25726;-79
2024/04/17 02:25:49;;;;;;;;;;;;;;;4.49;83.20;98876.89;108542;1274;22549;-80
2024/04/17 02:28:39;;;;;;;4.60;0.90;;;;;;;4.47;82.96;98881.02;107476;1274;24262;-79
2024/04/17 02:31:28;;;;;;;;;;;;;;;4.48;82.89;98887.92;108725;1274;22591;-79
2024/04/17 02:34:19;;;;;;;1.90;0.50;;;;;;;4.48;83.00;98897.02;108332;1274;25477;-79
2024/04/17 02:37:10;;;;;;;3.00;1.00;;;;;;;4.46;83.51;98902.95;108749;1266;22571;-79
2024/04/17 02:39:59;;;;;;;;;;;;;;;4.46;83.28;98906.11;108237;1270;24954;-80
2024/04/17 02:42:49;;;;;;;5.90;1.00;;;;;;;4.48;83.17;98907.45;108834;1270;23275;-79
2024/04/17 02:45:40;;;;;;;3.70;0.80;;;;;;;4.50;83.35;98911.63;108569;1273;22654;-80
2024/04/17 02:48:31;;;;;;;3.10;0.80;;;;;;;4.52;83.34;98912.88;108205;1273;24902;-78
2024/04/17 02:51:21;;;;;;;3.90;0.80;;;;;;;4.54;83.54;98912.52;108557;1268;25334;-79
2024/04/17 02:54:12;;;;;;;2.30;0.70;;;;;;;4.56;83.59;98911.40;108257;1274;23194;-80
2024/04/17 02:57:01;;;;;;;;;;;;;;;4.59;83.48;98911.58;108233;1274;22515;-79
2024/04/17 02:59:52;;;;;;;2.50;0.70;;;;;;;4.59;83.23;98909.46;108416;1268;25274;-78
2024/04/17 03:02:43;;;;;;;2.40;0.40;;;;;;;4.61;83.09;98911.92;108730;1268;23057;-78
2024/04/17 03:05:35;;;;;;;4.10;0.70;;;;;;;4.61;82.69;98913.33;108184;1263;22762;-80
2024/04/17 03:08:25;;;;;;;2.50;0.60;;;;;;;4.62;82.47;98917.25;108141;1267;22615;-78
2024/04/17 03:11:16;;;;;;;4.00;0.60;;;;;;;4.62;82.41;98914.40;108261;1267;22643;-80
2024/04/17 03:14:06;;;;;;;2.20;0.50;;;;;;;4.60;81.49;98917.88;108241;1267;22625;-80
2024/04/17 03:16:57;;;;;;;1.40;0.40;;;;;;;4.59;81.35;98918.95;107890;1274;25341;-79
2024/04/17 03:19:48;;;;;;;1.80;0.30;;;;;;;4.59;81.19;98919.36;108001;1274;23782;-79
2024/04/17 03:22:39;;;;;;;1.60;0.40;;;;;;;4.59;81.13;98925.59;108055;1274;22571;-79
2024/04/17 03:25:30;;;;;;;2.40;0.50;;;;;;;4.60;81.20;98931.09;108048;1273;22525;-80
2024/04/17 03:28:20;;;;;;;2.80;0.50;;;;;;;4.60;81.31;98932.50;108174;1273;22561;-80
2024/04/17 03:31:09;;;;;;;;;;;;;;;4.61;81.14;98935.88;108265;1270;23055;-79
2024/04/17 03:34:00;;;;;;;2.10;0.50;;;;;;;4.60;81.04;98938.58;107456;1271;22641;-79
2024/04/17 03:36:50;;;;;;;2.20;0.50;;;;;;;4.61;81.12;98940.05;108080;1273;22586;-81
2024/04/17 03:39:42;;;;;;;3.80;0.50;;;;;;;4.62;81.10;98939.91;108543;1273;22535;-86
2024/04/17 03:42:36;;;;;;;1.10;0.30;;;;;;;4.63;81.12;98938.50;110502;1274;23861;-87
2024/04/17 03:45:30;;;;;;;2.10;0.70;;;;;;;4.64;81.35;98941.53;108572;1271;22528;-86
2024/04/17 03:48:28;;;;;;;2.50;0.50;;;;;;;4.64;81.13;98943.80;110354;1268;22641;-87
2024/04/17 03:51:25;;;;;;;3.10;0.50;;;;;;;4.64;81.21;98948.38;109190;1270;22632;-88
2024/04/17 03:54:24;;;;;;;1.50;0.30;;;;;;;4.64;81.20;98946.85;110235;1274;22534;-87
2024/04/17 03:57:33;;;;;;;2.60;0.80;;;;;;;4.62;81.16;98953.00;109625;1274;22540;-87
2024/04/17 04:00:47;;;;;;;1.30;0.40;;;;;;;4.63;81.22;98951.37;110271;1274;22486;-87
2024/04/17 04:03:43;;;;;;;3.40;0.40;;;;;;;4.64;81.21;98952.73;109250;1274;23905;-88
2024/04/17 04:06:54;;;;;;;2.90;0.40;;;;;;;4.65;81.14;98955.02;109649;1268;25312;-87
2024/04/17 04:10:02;;;;;;;2.00;0.50;;;;;;;4.66;81.32;98959.21;108566;1274;25281;-87
2024/04/17 04:12:55;;;;;;;1.80;0.50;;;;;;;4.68;81.30;98964.58;109534;1267;25379;-86
2024/04/17 04:15:54;;;;;;;3.50;0.50;;;;;;;4.67;81.27;98964.36;108117;1273;23180;-85
2024/04/17 04:18:48;;;;;;;3.80;0.40;;;;;;;4.67;81.18;98969.09;110317;1271;22525;-85
2024/04/17 04:21:39;;;;;;;2.20;0.50;;;;;;;4.65;81.26;98971.52;108489;1271;26105;-84
2024/04/17 04:24:33;;;;;;;2.80;0.60;;;;;;;4.65;81.30;98973.48;109157;1273;22577;-86
2024/04/17 04:27:43;;;;;;;6.10;0.60;;;;;;;4.65;81.34;98975.53;109667;1270;22567;-86
2024/04/17 04:30:41;;;;;;;2.90;0.70;;;;;;;4.64;81.68;98986.00;109373;1271;24240;-85
2024/04/17 04:33:39;;;;;;;3.90;0.80;;;;;;;4.63;81.70;98991.67;109251;1267;24177;-86
2024/04/17 04:36:41;;;;;;;2.00;0.60;;;;;;;4.63;82.03;98995.60;108917;1274;22540;-87
2024/04/17 04:39:40;;;;;;;2.40;0.70;;;;;;;4.63;82.18;98997.14;108810;1273;23274;-86
2024/04/17 04:42:42;;;;;;;3.40;0.70;;;;;;;4.63;82.36;99001.07;110820;1268;23165;-87
2024/04/17 04:45:35;;;;;;;4.70;1.00;;;;;;;4.64;82.67;99004.86;110650;1271;22185;-88
2024/04/17 04:48:31;;;;;;;3.30;0.70;;;;;;;4.63;82.83;99010.86;110771;1266;22116;-86
2024/04/17 04:51:24;;;;;;;3.00;0.80;;;;;;;4.62;83.06;99008.84;108908;1271;22644;-85
2024/04/17 04:54:20;;;;;;;3.10;0.60;;;;;;;4.62;83.28;99009.23;108509;1258;22525;-87
2024/04/17 04:57:12;;;;;;;5.10;0.90;;;;;;;4.61;83.14;99001.56;110776;1274;22227;-87
2024/04/17 05:00:13;;;;;;;2.60;0.60;;;;;;;4.62;83.16;99006.02;110679;1270;22807;-87
2024/04/17 05:03:08;;;;;;;6.40;1.00;;;;;;;4.62;83.25;99011.75;110785;1274;22200;-87
2024/04/17 05:06:04;;;;;;;3.40;0.70;;;;;;;4.62;83.38;99016.67;110767;1266;22365;-87
2024/04/17 05:08:57;;;;;;;3.10;0.90;;;;;;;4.63;83.73;99018.15;110682;1271;22297;-87
2024/04/17 05:11:49;;;;;;;3.60;0.70;;;;;;;4.62;83.88;99021.18;110650;1274;22123;-87
2024/04/17 05:14:42;;;;;;;3.50;0.80;;;;;;;4.63;84.30;99020.88;110657;1274;23123;-87
2024/04/17 05:17:43;;;;;;;3.20;0.90;;;;;;;4.63;84.81;99023.73;110607;1271;22159;-87
2024/04/17 05:20:36;;;;;;;5.80;1.00;;;;;;;4.61;85.01;99020.77;110644;1271;22141;-87
2024/04/17 05:23:30;;;;;;;5.80;0.80;;;;;;;4.59;85.23;99026.44;110693;1268;22162;-87
2024/04/17 05:26:33;;;;;;;3.40;0.80;;;;;;;4.58;85.48;99026.81;110690;1269;22403;-87
2024/04/17 05:29:36;;;;;;;6.60;1.00;;;;;;;4.56;85.74;99027.63;110692;1271;22166;-86
2024/04/17 05:32:30;;;;;;;3.60;0.80;;;;;;;4.55;86.14;99027.42;110719;1267;22320;-86
2024/04/17 05:35:28;;;;;;;4.10;0.90;;;;;;;4.52;86.50;99032.77;110710;1273;22190;-86
2024/04/17 05:38:21;;;;;;;4.60;0.90;;;;;;;4.49;87.00;99035.83;110530;1267;22338;-87
2024/04/17 05:41:13;;;;;;;4.30;0.80;;;;;;;4.50;86.89;99037.23;110727;1268;22373;-88
2024/04/17 05:44:10;;;;;;;2.90;0.70;;;;;;;4.50;87.19;99038.89;110556;1267;22407;-86
2024/04/17 05:47:03;;;;;;;3.10;0.80;;;;;;;4.50;87.55;99034.23;106616;1274;5395152;-86
2024/04/17 05:49:57;;;;;;;3.30;0.70;;;;;;;4.50;87.58;99040.77;110719;1274;22219;-88
2024/04/17 05:53:36;;;;;;;3.50;0.80;;;;;;;4.51;87.66;99039.98;110776;1266;22302;-88
2024/04/17 05:57:01;;;;;;;;;;;;;;;4.51;87.78;99039.87;110871;1270;22376;-88
2024/04/17 06:01:10;;;;;;;4.10;0.60;;;;;;;4.49;88.02;99040.50;110775;1268;22970;-89
2024/04/17 06:04:58;;;;;;;2.00;0.50;;;;;;;4.46;88.27;99048.95;111069;1271;22219;-88
2024/04/17 06:09:17;;;;;;;2.40;0.60;;;;;;;4.43;88.28;99051.05;110875;1269;23799;-87
2024/04/17 06:13:46;;;;;;;2.60;0.70;;;;;;;4.44;88.47;99052.84;110487;1268;22689;-88
2024/04/17 06:17:56;;;;;;;4.10;0.70;;;;;;;4.46;89.14;99058.00;110746;1268;23170;-89
2024/04/17 06:21:48;;;;;;;5.20;0.80;;;;;;;4.47;89.27;99058.13;110784;1267;22164;-88
2024/04/17 06:25:42;;;;;;;6.40;0.80;;;;;;;4.48;89.67;99058.19;110251;1273;23693;-88
2024/04/17 06:30:20;;;;;;;3.90;0.80;;;;;;;4.48;90.20;99063.93;110408;1271;22582;-89
2024/04/17 06:33:52;;;;;;;5.10;1.00;;;;;;;4.48;90.58;99069.45;110802;1274;22144;-88
2024/04/17 06:37:09;;;;;;;3.70;1.10;;;;;;;4.50;90.92;99068.59;110694;1276;22136;-88
2024/04/17 06:40:05;;;;;;;4.30;1.40;;;;;;;4.51;90.93;99072.45;109862;1274;23982;-86
2024/04/17 06:43:10;;;;;;;4.50;1.40;;;;;;;4.54;91.40;99073.58;109031;1274;22591;-87
2024/04/17 06:46:02;;;;;;;5.10;1.20;;;;;;;4.57;91.49;99072.83;108781;1274;22679;-86
2024/04/17 06:48:55;;;;;;;4.00;1.30;;;;;;;4.58;91.84;99078.84;108442;1273;22591;-86
2024/04/17 06:51:48;;;;;;;6.60;1.90;;;;;;;4.58;92.23;99082.63;109337;1268;23407;-86
2024/04/17 06:54:41;;;;;;;5.30;1.40;;;;;;;4.59;92.53;99080.72;109134;1274;22738;-87
2024/04/17 06:57:35;;;;;;;4.70;1.50;;;;;;;4.60;92.53;99077.02;109180;1271;22554;-86
2024/04/17 07:00:33;;;;;;;6.10;1.80;;;;;;;4.63;93.04;99082.48;109194;1274;22567;-85
2024/04/17 07:03:25;;;;;;;6.00;1.90;;;;;;;4.67;93.12;99084.34;110621;1268;22214;-87
2024/04/17 07:06:17;;;;;;;6.60;1.70;;;;;;;4.71;93.99;99089.77;110655;1274;22198;-87
2024/04/17 07:09:13;;;;;;;5.00;1.50;;;;;;;4.71;94.61;99087.49;110679;1274;22882;-87
2024/04/17 07:12:07;;;;;;;4.30;1.10;;;;;;;4.71;94.26;99087.09;110669;1274;22167;-87
2024/04/17 07:15:01;;;;;;;5.50;1.40;;;;;;;4.72;94.33;99085.82;110661;1271;22192;-87
2024/04/17 07:17:54;;;;;;;4.30;1.50;;;;;;;4.75;94.43;99082.86;110652;1271;22214;-87
2024/04/17 07:20:48;;;;;;;5.90;1.50;;;;;;;4.75;94.41;99083.16;109476;1274;25351;-86
2024/04/17 07:23:43;;;;;;;4.50;1.10;;;;;;;4.78;94.49;99090.83;109162;1273;22524;-87
2024/04/17 07:26:37;;;;;;;5.80;1.20;;;;;;;4.80;94.29;99092.68;109206;1274;22628;-85
2024/04/17 07:29:36;;;;;;;;;;;;;;;4.80;94.40;99097.00;109672;1274;24400;-87
2024/04/17 07:32:33;;;;;;;4.90;1.40;;;;;;;4.78;94.99;99099.29;109357;1273;23780;-86
2024/04/17 07:35:28;;;;;;;4.40;1.20;;;;;;;4.78;94.56;99101.38;109262;1267;23861;-87
2024/04/17 07:38:23;;;;;;;5.70;1.30;;;;;;;4.79;94.88;99102.17;109471;1267;22715;-86
2024/04/17 07:41:20;;;;;;;4.50;1.10;;;;;;;4.82;95.03;99101.33;109559;1273;22543;-87
2024/04/17 07:44:13;;;;;;;5.80;1.50;;;;;;;4.85;95.54;99108.60;109054;1267;22306;-87
2024/04/17 07:47:08;;;;;;;5.60;1.50;;;;;;;4.88;95.48;99109.79;109125;1274;22700;-85
2024/04/17 07:50:02;;;;;;;5.20;1.30;;;;;;;4.96;95.85;99109.34;109147;1274;22593;-87
2024/04/17 07:52:59;;;;;;;5.40;1.50;;;;;;;5.02;95.72;99108.21;109394;1274;22913;-87
2024/04/17 07:56:11;;;;;;;3.40;1.00;;;;;;;5.09;95.71;99112.70;109185;1273;22613;-87
2024/04/17 07:59:08;;;;;;;2.90;0.90;;;;;;;5.12;95.59;99116.45;109305;1273;24242;-87
2024/04/17 08:02:07;;;;;;;2.10;0.60;;;;;;;5.14;95.31;99119.52;109181;1275;25421;-86
2024/04/17 08:05:07;;;;;;;4.50;1.20;;;;;;;5.17;95.13;99122.30;109361;1274;23309;-87
2024/04/17 08:08:01;;;;;;;5.40;1.00;;;;;;;5.18;95.65;99120.52;109162;1274;22676;-87
2024/04/17 08:10:58;;;;;;;4.30;1.10;;;;;;;5.19;95.73;99120.78;110604;1274;22144;-87
2024/04/17 08:13:52;;;;;;;4.80;1.30;;;;;;;5.22;96.21;99123.75;110663;1274;22215;-87
2024/04/17 08:16:48;;;;;;;2.80;0.80;;;;;;;5.22;96.49;99119.75;110540;1274;22255;-86
2024/04/17 08:19:40;;;;;;;3.20;1.00;;;;;;;5.23;96.43;99123.59;110627;1274;22220;-86
2024/04/17 08:22:34;;;;;;;4.30;1.00;;;;;;;5.23;96.30;99127.10;110685;1273;22234;-86
2024/04/17 08:25:25;;;;;;;2.20;0.50;;;;;;;5.24;96.65;99135.23;110665;1267;22308;-87
2024/04/17 08:28:20;;;;;;;4.70;0.60;;;;;;;5.28;96.75;99134.75;110646;1270;22127;-86
2024/04/17 08:31:15;;;;;;;2.60;0.80;;;;;;;5.33;96.48;99137.65;110673;1273;22269;-85
2024/04/17 08:34:07;;;;;;;2.50;0.50;;;;;;;5.39;96.04;99142.80;110644;1274;22608;-86
2024/04/17 08:36:59;;;;;;;2.90;0.40;;;;;;;5.40;95.01;99150.18;110663;1274;22205;-86
2024/04/17 08:39:53;;;;;;;2.00;0.50;;;;;;;5.38;94.27;99156.06;110657;1274;23022;-85
2024/04/17 08:42:51;;;;;;;1.10;0.20;;;;;;;5.32;93.66;99164.68;110649;1274;22279;-85
2024/04/17 08:45:42;;;;;;;1.50;0.30;;;;;;;5.28;93.59;99166.86;110650;1274;22288;-85
2024/04/17 08:48:36;;;;;;;1.50;0.30;;;;;;;5.24;93.92;99177.69;110666;1273;22211;-85
2024/04/17 08:51:29;;;;;;;1.10;0.40;;;;;;;5.20;93.96;99178.64;110635;1271;22874;-86
2024/04/17 08:54:21;;;;;;;2.20;0.40;;;;;;;5.16;94.63;99178.59;110700;1270;22224;-86
2024/04/17 08:57:16;;;;;;;1.70;0.40;;;;;;;5.15;94.62;99183.76;110740;1270;22222;-86
2024/04/17 09:00:14;;;;;;;1.30;0.40;;;;;;;5.14;94.95;99187.42;109996;1263;24304;-86
2024/04/17 09:03:08;;;;;;;1.80;0.40;;;;;;;5.14;94.97;99188.56;108847;1274;22642;-87
2024/04/17 09:06:07;;;;;;;2.50;0.40;;;;;;;5.11;95.04;99191.40;108888;1273;22536;-87
2024/04/17 09:09:09;;;;;;;2.10;0.60;;;;;;;5.07;95.07;99192.42;109120;1274;22525;-88
2024/04/17 09:12:08;;;;;;;2.90;0.60;;;;;;;5.09;95.51;99196.28;109168;1273;24299;-88
2024/04/17 09:15:11;;;;;;;2.50;0.50;;;;;;;5.09;95.52;99197.95;109607;1270;24328;-87
2024/04/17 09:18:14;;;;;;;1.40;0.40;;;;;;;5.08;95.31;99201.36;109458;1273;22574;-88
2024/04/17 09:21:53;;;;;;;1.30;0.50;;;;;;;5.08;95.37;99203.98;109762;1274;23777;-88
2024/04/17 09:25:28;;;;;;;2.60;0.80;;;;;;;5.09;95.21;99212.48;110102;1274;22532;-88
2024/04/17 09:30:16;;;;;;;2.70;0.60;;;;;;;5.19;95.54;99212.79;110250;1267;22612;-90
2024/04/17 09:35:10;;;;;;;3.20;0.70;;;;;;;5.33;95.79;99221.46;110568;1274;22584;-89
2024/04/17 09:39:07;;;;;;;3.60;0.70;;;;;;;5.47;95.92;99218.11;110911;1267;23386;-88
2024/04/17 09:47:04;;;;;;;3.50;0.70;;;;;;;5.63;94.38;99227.44;102054;1266;22414;31
2024/04/17 09:51:17;;;;;;;2.20;0.60;;;;;;;5.70;94.22;99230.81;104364;1268;22746;-90
2024/04/17 09:58:34;;;;;;;3.00;0.80;;;;;;;6.01;94.78;99233.27;110751;1270;22988;-89
2024/04/17 10:02:56;;;;;;;3.30;0.90;;;;;;;6.10;93.53;99234.71;110743;1268;23160;-90
2024/04/17 10:07:50;;;;;;;6.10;2.00;;;;;;;6.16;93.53;99233.19;110630;1275;22648;-90
2024/04/17 10:12:25;;;;;;;4.40;0.90;;;;;;;6.18;92.42;99243.89;110410;1276;22622;-90
2024/04/17 10:16:40;;;;;;;5.40;1.00;;;;;;;6.18;93.31;99243.95;110302;1273;22188;-89
2024/04/17 10:19:56;;;;;;;3.30;0.90;;;;;;;6.27;93.07;99249.67;110135;1277;23171;-88
2024/04/17 10:23:38;;;;;;;7.50;1.00;;;;;;;6.24;91.20;99251.41;109960;1272;23674;-88
2024/04/17 10:27:14;;;;;;;2.50;0.80;;;;;;;6.16;90.96;99257.67;110543;1274;22983;-89
2024/04/17 10:30:42;;;;;;;4.50;0.90;;;;;;;6.09;91.07;99262.67;110126;1274;22561;-87
2024/04/17 10:33:39;;;;;;;3.90;0.90;;;;;;;6.04;90.81;99259.63;109943;1274;23086;-88
2024/04/17 10:36:40;;;;;;;3.70;0.80;;;;;;;5.99;90.54;99262.50;109621;1276;22654;-87
2024/04/17 10:40:19;;;;;;;3.70;1.00;;;;;;;5.99;90.80;99262.64;110086;1273;23493;-87
2024/04/17 10:43:15;;;;;;;3.70;0.70;;;;;;;6.02;90.84;99267.43;109954;1270;23345;-88
2024/04/17 10:46:22;;;;;;;6.30;0.80;;;;;;;6.05;90.87;99269.13;109758;1276;22220;-88
2024/04/17 10:49:24;;;;;;;3.00;0.80;;;;;;;6.06;90.08;99274.77;109869;1272;23228;-86
2024/04/17 10:52:27;;;;;;;3.50;0.90;;;;;;;6.08;90.32;99279.52;110524;1267;22336;-88
2024/04/17 10:55:42;;;;;;;2.40;0.80;;;;;;;6.15;90.62;99281.97;110592;1276;22159;-88
2024/04/17 10:58:58;;;;;;;3.60;0.80;;;;;;;6.20;90.43;99286.27;110641;1276;22215;-88
2024/04/17 11:01:58;;;;;;;3.00;0.80;;;;;;;6.22;90.51;99285.92;110580;1276;22148;-88
2024/04/17 11:05:45;;;;;;;3.50;0.80;;;;;;;6.20;89.58;99287.96;110508;1276;22179;-87
2024/04/17 11:08:45;;;;;;;7.30;1.10;;;;;;;6.17;89.97;99286.61;110618;1276;22212;-89
2024/04/17 11:12:23;;;;;;;3.70;0.80;;;;;;;6.16;89.79;99290.46;110575;1276;22221;-87
2024/04/17 11:15:15;;;;;;;4.10;1.00;;;;;;;6.14;90.02;99296.87;110579;1270;22353;-87
2024/04/17 11:18:16;;;;;;;3.30;0.80;;;;;;;6.10;89.99;99299.92;110485;1274;22189;-87
2024/04/17 11:21:30;;;;;;;5.20;0.70;;;;;;;6.06;89.60;99305.36;110603;1274;22687;-88
2024/04/17 11:24:44;;;;;;;4.30;0.80;;;;;;;6.02;90.21;99310.00;110486;1273;22143;-87
2024/04/17 11:27:44;;;;;;;3.80;0.80;;;;;;;5.96;89.86;99309.27;110452;1276;22125;-88
2024/04/17 11:30:46;;;;;;;3.30;0.90;;;;;;;5.91;90.12;99309.60;110563;1276;22890;-88
2024/04/17 11:33:49;;;;;;;4.80;0.80;;;;;;;5.85;89.97;99316.03;110587;1276;22247;-86
2024/04/17 11:36:44;;;;;;;4.90;0.90;;;;;;;5.82;89.92;99317.03;110550;1273;22157;-88
2024/04/17 11:39:55;;;;;;;5.70;1.50;;;;;;;5.82;90.34;99317.89;110556;1273;22217;-87
2024/04/17 11:42:52;;;;;;;3.90;0.90;;;;;;;5.84;90.53;99327.80;110464;1276;22217;-87
2024/04/17 11:45:47;;;;;;;3.90;1.10;;;;;;;5.87;90.50;99329.10;110535;1270;22197;-87
2024/04/17 11:48:48;;;;;;;5.00;0.80;;;;;;;5.87;90.55;99333.92;110421;1276;22235;-87
2024/04/17 11:51:39;;;;;;;;;;;;;;;5.85;90.28;99334.15;110564;1269;22428;-87
2024/04/17 11:54:44;;;;;;;4.20;1.10;;;;;;;5.80;89.87;99334.36;110446;1274;22183;-87
2024/04/17 11:57:36;;;;;;;2.90;1.00;;;;;;;5.78;89.89;99335.46;110539;1267;22359;-87
2024/04/17 12:00:30;;;;;;;4.50;1.30;;;;;;;5.75;90.23;99341.80;110453;1276;22184;-87
2024/04/17 12:03:25;;;;;;;4.50;1.40;;;;;;;5.77;90.26;99345.86;110551;1276;22232;-87
2024/04/17 12:06:23;;;;;;;5.40;1.10;;;;;;;5.72;90.32;99347.69;110518;1276;22188;-86
2024/04/17 12:09:33;;;;;;;6.40;1.20;;;;;;;5.71;90.32;99350.38;110543;1270;22181;-87
2024/04/17 12:12:33;;;;;;;4.50;1.00;;;;;;;5.69;90.46;99353.09;110452;1274;22178;-86
2024/04/17 12:15:27;;;;;;;4.20;0.90;;;;;;;5.68;90.49;99357.50;110544;1273;22856;-87
2024/04/17 12:18:49;;;;;;;5.20;1.00;;;;;;;5.68;90.81;99354.33;110531;1270;22309;-87
2024/04/17 12:21:43;;;;;;;6.00;0.90;;;;;;;5.69;90.82;99355.23;110567;1270;23098;-87
2024/04/17 12:27:59;;;;;;;3.10;0.80;;;;;;;5.71;90.24;99357.08;110619;1276;22296;-86
2024/04/17 12:30:52;;;;;;;4.40;0.90;;;;;;;5.73;89.75;99360.17;110601;1264;22315;-87
2024/04/17 12:33:46;;;;;;;8.20;0.90;;;;;;;5.74;90.05;99364.64;110604;1271;22657;-86
2024/04/17 12:36:40;;;;;;;5.50;0.90;;;;;;;5.73;89.92;99364.27;110600;1270;22227;-87
2024/04/17 12:39:33;;;;;;;5.00;0.90;;;;;;;5.71;89.64;99365.23;110577;1273;22241;-86
2024/04/17 12:42:26;;;;;;;4.30;1.00;;;;;;;5.68;89.57;99362.14;110573;1273;22199;-86
2024/04/17 12:45:19;;;;;;;2.40;0.80;;;;;;;5.68;89.63;99365.39;110579;1270;22215;-86
2024/04/17 12:48:16;;;;;;;4.30;0.90;;;;;;;5.67;89.76;99364.94;110588;1268;23315;-86
2024/04/17 12:51:09;;;;;;;5.50;0.80;;;;;;;5.68;89.95;99366.73;110555;1273;22216;-86
2024/04/17 12:54:03;;;;;;;12.20;1.20;;;;;;;5.68;89.92;99372.41;110496;1271;22152;-87
2024/04/17 12:56:57;;;;;;;4.10;1.00;;;;;;;5.70;89.90;99374.35;110611;1272;22689;-85
2024/04/17 12:59:50;;;;;;;3.70;1.00;;;;;;;5.70;89.73;99378.69;110481;1272;22923;-86
2024/04/17 13:02:46;;;;;;;5.10;0.90;;;;;;;5.74;90.01;99373.40;110589;1270;22187;-87
2024/04/17 13:05:40;;;;;;;4.20;1.00;;;;;;;5.78;89.71;99374.69;110588;1273;22816;-88
2024/04/17 13:08:36;;;;;;;5.10;1.00;;;;;;;5.78;89.31;99372.17;110448;1269;22958;-87
2024/04/17 13:11:29;;;;;;;5.00;1.00;;;;;;;5.82;89.93;99370.46;110403;1275;23089;-88
2024/04/17 13:14:22;;;;;;;3.60;0.90;;;;;;;5.88;90.16;99371.20;110505;1275;22252;-87
2024/04/17 13:17:22;;;;;;;5.10;1.20;;;;;;;5.99;90.24;99368.17;110584;1269;22347;-86
2024/04/17 13:20:27;;;;;;;6.40;1.20;;;;;;;6.10;89.92;99366.85;110589;1276;22300;-87
2024/04/17 13:23:29;;;;;;;5.70;1.10;;;;;;;6.21;90.13;99367.13;110577;1271;22198;-86
2024/04/17 13:26:22;;;;;;;5.60;1.10;;;;;;;6.35;89.99;99368.65;110482;1270;22298;-86
2024/04/17 13:29:15;;;;;;;3.90;1.10;;;;;;;6.45;89.23;99370.56;110498;1271;22361;-87
2024/04/17 13:32:09;;;;;;;5.20;1.30;;;;;;;6.52;88.91;99366.87;110605;1270;22180;-86
2024/04/17 13:35:04;;;;;;;4.30;1.00;;;;;;;6.63;89.35;99364.27;110515;1276;22267;-88
2024/04/17 13:37:58;;;;;;;6.00;1.20;;;;;;;6.74;88.74;99359.76;110527;1276;22205;-88
2024/04/17 13:41:15;;;;;;;3.60;1.20;;;;;;;6.80;87.81;99362.05;110437;1276;22566;-87
2024/04/17 13:44:16;;;;;;;3.00;0.80;;;;;;;6.84;87.32;99359.96;110528;1269;24374;-87
2024/04/17 13:47:17;;;;;;;6.80;0.80;;;;;;;6.89;87.47;99361.52;110602;1268;22543;-88
2024/04/17 13:50:16;;;;;;;6.20;1.00;;;;;;;6.95;87.43;99362.39;109222;1268;23391;-86
2024/04/17 13:53:23;;;;;;;4.10;1.00;;;;;;;7.03;87.29;99356.80;110547;1269;23030;-87
2024/04/17 13:56:18;;;;;;;3.70;1.00;;;;;;;7.10;86.85;99357.99;110612;1269;22472;-88
2024/04/17 13:59:12;;;;;;;4.60;1.00;;;;;;;7.13;86.23;99358.95;110486;1268;22843;-87
2024/04/17 14:02:09;;;;;;;4.00;1.10;;;;;;;7.14;85.68;99357.92;110582;1275;22144;-86
2024/04/17 14:05:02;;;;;;;4.40;1.10;;;;;;;7.14;85.82;99358.25;110525;1275;23213;-87
2024/04/17 14:07:57;;;;;;;2.80;1.00;;;;;;;7.17;85.82;99362.22;110631;1275;23024;-88
2024/04/17 14:10:58;;;;;;;5.80;1.50;;;;;;;7.22;85.57;99362.30;110521;1275;22203;-87
2024/04/17 14:13:59;;;;;;;4.80;1.00;;;;;;;7.26;85.36;99363.78;110627;1276;22924;-88
2024/04/17 14:16:53;;;;;;;6.30;1.10;;;;;;;7.30;85.37;99360.37;110512;1276;23038;-88
2024/04/17 14:19:50;;;;;;;3.90;0.80;;;;;;;7.30;84.63;99362.45;110516;1276;22769;-88
2024/04/17 14:22:43;;;;;;;3.40;1.00;;;;;;;7.31;84.43;99365.10;110524;1276;23019;-87
2024/04/17 14:25:45;;;;;;;4.20;0.80;;;;;;;7.29;83.99;99361.98;110534;1276;22149;-88
2024/04/17 14:28:42;;;;;;;3.10;0.80;;;;;;;7.32;84.26;99360.96;110530;1276;22242;-88
2024/04/17 14:31:38;;;;;;;5.50;0.80;;;;;;;7.34;83.43;99355.60;110528;1276;22243;-86
2024/04/17 14:34:48;;;;;;;2.60;0.70;;;;;;;7.37;83.61;99358.42;110617;1275;22982;-87